Time;durP1;ratioP1;P1;durP2;ratioP2;P2;SDS_P1;SDS_P2;PMS_P1;PMS_P2;Temp;Humidity;BMP_temperature;BMP_pressure;BME280_temperature;BME280_humidity;BME280_pressure;Samples;Min_cycle;Max_cycle;Signal;HPM_P1;HPM_P2
2024/01/22 00:00:00;;;;;;;3.47;2.50;;;7.40;94.60;;;;;;10443070;28;20208;-64
2024/01/22 00:05:06;;;;;;;4.97;2.50;;;7.40;94.80;;;;;;10444483;28;20300;-65
2024/01/22 00:10:10;;;;;;;4.37;2.67;;;7.50;95.10;;;;;;10445029;28;20689;-62
2024/01/22 00:15:13;;;;;;;5.17;2.80;;;7.50;94.70;;;;;;10441639;28;20216;-64
2024/01/22 00:20:18;;;;;;;4.70;2.63;;;7.50;94.70;;;;;;10445277;28;20945;-61
2024/01/22 00:25:22;;;;;;;3.17;2.27;;;7.50;94.90;;;;;;10444430;28;20223;-65
2024/01/22 00:30:26;;;;;;;5.80;3.07;;;7.50;94.70;;;;;;10443495;28;20218;-62
2024/01/22 00:35:31;;;;;;;4.10;2.10;;;7.60;95.00;;;;;;10445469;28;20292;-64
2024/01/22 00:40:44;;;;;;;4.10;2.57;;;7.60;95.20;;;;;;10445934;28;20221;-64
2024/01/22 00:45:50;;;;;;;3.43;2.20;;;7.60;95.00;;;;;;10440336;28;20222;-65
2024/01/22 00:50:55;;;;;;;3.77;2.20;;;7.70;95.10;;;;;;10446684;28;20200;-65
2024/01/22 00:56:00;;;;;;;4.13;2.10;;;7.70;95.20;;;;;;10446651;28;20253;-63
2024/01/22 01:01:08;;;;;;;3.13;2.07;;;7.70;95.40;;;;;;10443658;28;20202;-61
2024/01/22 01:06:13;;;;;;;4.00;1.77;;;7.80;95.30;;;;;;10444900;28;20211;-65
2024/01/22 01:11:20;;;;;;;4.77;2.37;;;7.80;95.50;;;;;;10442021;28;20199;-65
2024/01/22 01:16:27;;;;;;;2.33;1.90;;;7.80;95.40;;;;;;10440449;28;20298;-65
2024/01/22 01:21:38;;;;;;;2.60;2.03;;;7.90;95.50;;;;;;10448841;28;20702;-63
2024/01/22 01:26:43;;;;;;;3.97;1.97;;;7.90;95.40;;;;;;10441382;28;20219;-62
2024/01/22 01:31:53;;;;;;;2.53;2.03;;;8.00;95.50;;;;;;10440243;28;20228;-64
2024/01/22 01:37:00;;;;;;;2.77;1.60;;;8.00;95.60;;;;;;10430352;28;20259;-64
2024/01/22 01:42:08;;;;;;;3.80;1.93;;;8.10;95.70;;;;;;10438495;28;20317;-65
2024/01/22 01:47:15;;;;;;;2.90;1.83;;;8.10;95.70;;;;;;10438059;28;20220;-64
2024/01/22 01:52:23;;;;;;;2.90;1.60;;;8.10;95.40;;;;;;10440805;28;20224;-65
2024/01/22 01:57:30;;;;;;;3.40;1.90;;;8.20;95.50;;;;;;10438620;28;20305;-64
2024/01/22 02:02:36;;;;;;;3.13;1.70;;;8.20;95.70;;;;;;10439143;28;20302;-64
2024/01/22 02:07:44;;;;;;;2.50;1.83;;;8.30;95.90;;;;;;10438492;28;20663;-64
2024/01/22 02:12:48;;;;;;;4.10;1.70;;;8.40;95.90;;;;;;10435329;28;20912;-65
2024/01/22 02:17:52;;;;;;;3.60;1.87;;;8.40;95.70;;;;;;10434140;28;20792;-65
2024/01/22 02:23:09;;;;;;;2.27;1.60;;;8.50;95.90;;;;;;10448013;28;20698;-65
2024/01/22 02:28:12;;;;;;;3.00;1.50;;;8.60;95.70;;;;;;10448995;28;20257;-65
2024/01/22 02:33:16;;;;;;;1.80;1.23;;;8.60;95.70;;;;;;10441141;28;20243;-64
2024/01/22 02:38:21;;;;;;;2.77;1.20;;;8.60;95.90;;;;;;10445898;28;20293;-64
2024/01/22 02:43:25;;;;;;;2.00;1.60;;;8.70;95.90;;;;;;10444406;28;20223;-64
2024/01/22 02:48:28;;;;;;;3.43;1.40;;;8.70;95.80;;;;;;10443998;28;20250;-65
2024/01/22 02:53:33;;;;;;;2.33;1.17;;;8.70;95.80;;;;;;10446662;28;20220;-63
2024/01/22 02:58:37;;;;;;;1.80;1.33;;;8.80;95.80;;;;;;10447485;28;20273;-65
2024/01/22 03:03:41;;;;;;;2.83;1.17;;;8.80;95.90;;;;;;10444751;28;20828;-65
2024/01/22 03:08:46;;;;;;;2.47;1.30;;;8.90;95.90;;;;;;10448490;28;20204;-65
2024/01/22 03:13:50;;;;;;;2.47;1.60;;;8.90;96.00;;;;;;10446222;28;20227;-65
2024/01/22 03:18:54;;;;;;;1.93;1.23;;;9.00;95.90;;;;;;10447357;28;20228;-64
2024/01/22 03:23:59;;;;;;;1.75;1.30;;;9.00;95.90;;;;;;10440278;28;20792;-64
2024/01/22 03:29:02;;;;;;;1.63;1.02;;;9.00;95.80;;;;;;10441979;28;20304;-65
2024/01/22 03:34:06;;;;;;;2.75;1.27;;;9.10;95.90;;;;;;10441329;28;20635;-66
2024/01/22 03:39:11;;;;;;;3.33;1.00;;;9.10;95.90;;;;;;10444704;28;20755;-65
2024/01/22 03:44:16;;;;;;;1.73;1.20;;;9.10;96.10;;;;;;10447163;28;20230;-64
2024/01/22 03:49:20;;;;;;;2.28;1.00;;;9.10;95.90;;;;;;10439932;28;20196;-66
2024/01/22 03:54:25;;;;;;;1.63;1.35;;;9.10;96.50;;;;;;10445539;28;20283;-66
2024/01/22 03:59:28;;;;;;;2.60;1.45;;;9.10;96.80;;;;;;10441443;28;20215;-65
2024/01/22 04:04:32;;;;;;;2.23;1.40;;;9.10;97.50;;;;;;10435856;28;20588;-66
2024/01/22 04:09:37;;;;;;;2.42;1.52;;;9.00;97.10;;;;;;10445869;28;20641;-66
2024/01/22 04:14:40;;;;;;;4.82;1.88;;;8.90;97.70;;;;;;10440944;28;20250;-65
2024/01/22 04:19:46;;;;;;;4.40;1.30;;;8.90;98.00;;;;;;10445856;28;20220;-64
2024/01/22 04:24:50;;;;;;;5.43;2.23;;;8.90;98.30;;;;;;10443526;28;20247;-62
2024/01/22 04:29:54;;;;;;;6.07;2.47;;;8.90;99.00;;;;;;10442014;28;20803;-65
2024/01/22 04:35:04;;;;;;;10.60;3.03;;;8.80;98.80;;;;;;10468383;28;20234;-62
2024/01/22 04:40:14;;;;;;;8.02;3.05;;;8.80;98.90;;;;;;10524232;28;20342;-65
2024/01/22 04:45:23;;;;;;;4.68;2.60;;;8.80;99.30;;;;;;10522259;28;20254;-65
2024/01/22 04:50:27;;;;;;;4.20;2.40;;;8.80;99.90;;;;;;10521573;28;20248;-62
2024/01/22 04:55:32;;;;;;;7.33;2.87;;;8.80;99.90;;;;;;10517181;28;20273;-66
2024/01/22 05:00:39;;;;;;;6.40;2.53;;;8.80;99.80;;;;;;10519815;28;20262;-65
2024/01/22 05:05:45;;;;;;;4.67;1.70;;;8.80;99.90;;;;;;10528210;28;20708;-65
2024/01/22 05:10:53;;;;;;;3.57;1.40;;;8.80;99.90;;;;;;10521891;28;20202;-64
2024/01/22 05:16:02;;;;;;;1.73;1.40;;;8.80;99.90;;;;;;10527058;28;20256;-63
2024/01/22 05:21:08;;;;;;;3.05;1.75;;;8.80;99.90;;;;;;10526460;28;20283;-64
2024/01/22 05:26:15;;;;;;;3.43;1.37;;;8.80;99.90;;;;;;10528115;28;20202;-64
2024/01/22 05:31:21;;;;;;;2.78;1.40;;;8.80;99.90;;;;;;10523934;28;20198;-65
2024/01/22 05:36:25;;;;;;;7.50;2.57;;;8.90;99.90;;;;;;10528399;28;20218;-62
2024/01/22 05:41:34;;;;;;;4.17;2.03;;;8.90;99.90;;;;;;10530629;28;20263;-62
2024/01/22 05:46:39;;;;;;;4.32;1.33;;;8.90;99.90;;;;;;10529836;28;20202;-65
2024/01/22 05:51:43;;;;;;;3.85;1.63;;;9.00;99.90;;;;;;10534873;28;20880;-61
2024/01/22 05:56:48;;;;;;;3.78;2.05;;;8.90;99.90;;;;;;10532200;28;20708;-63
2024/01/22 06:01:55;;;;;;;4.57;2.30;;;8.90;99.90;;;;;;10537637;28;20218;-63
2024/01/22 06:06:58;;;;;;;3.30;1.70;;;9.00;99.90;;;;;;10522936;28;20198;-64
2024/01/22 06:12:09;;;;;;;3.15;1.55;;;9.00;99.90;;;;;;10537260;28;20226;-63
2024/01/22 06:17:13;;;;;;;5.38;2.85;;;9.00;99.90;;;;;;10537006;28;20222;-64
2024/01/22 06:22:18;;;;;;;1.58;1.08;;;9.10;99.90;;;;;;10530009;28;20230;-64
2024/01/22 06:27:22;;;;;;;5.78;2.28;;;9.10;99.90;;;;;;10534335;28;20486;-62
2024/01/22 06:32:26;;;;;;;2.42;1.90;;;9.20;99.90;;;;;;10536140;28;20234;-63
2024/01/22 06:37:34;;;;;;;6.10;3.38;;;9.30;99.90;;;;;;10534239;28;20514;-61
2024/01/22 06:42:47;;;;;;;6.88;3.78;;;9.50;99.90;;;;;;10530726;28;20226;-62
2024/01/22 06:47:56;;;;;;;1.42;0.90;;;9.60;99.90;;;;;;10536296;28;20666;-62
2024/01/22 06:53:03;;;;;;;6.75;3.72;;;9.60;99.90;;;;;;10537235;28;20222;-59
2024/01/22 06:58:16;;;;;;;4.88;3.00;;;9.60;99.90;;;;;;10533861;28;20238;-62
2024/01/22 07:03:21;;;;;;;5.03;1.80;;;9.60;99.90;;;;;;10527452;28;20218;-59
2024/01/22 07:08:25;;;;;;;3.72;2.58;;;9.70;99.90;;;;;;10534566;28;20202;-63
2024/01/22 07:13:39;;;;;;;3.83;2.10;;;9.60;99.90;;;;;;10535235;28;20222;-62
2024/01/22 07:18:45;;;;;;;2.35;1.20;;;9.60;99.90;;;;;;10533482;28;20294;-61
2024/01/22 07:23:54;;;;;;;1.35;1.02;;;9.60;99.90;;;;;;10532882;28;20330;-61
2024/01/22 07:29:01;;;;;;;3.38;2.08;;;9.60;99.90;;;;;;10521141;28;20203;-62
2024/01/22 07:34:15;;;;;;;2.20;1.17;;;9.70;99.90;;;;;;10533410;28;20230;-64
2024/01/22 07:39:22;;;;;;;1.73;1.63;;;9.70;99.90;;;;;;10534279;28;20761;-63
2024/01/22 07:44:33;;;;;;;2.22;1.50;;;9.70;99.90;;;;;;10534975;28;20218;-62
2024/01/22 07:49:41;;;;;;;0.82;0.63;;;9.80;99.90;;;;;;10526695;28;20650;-63
2024/01/22 07:54:45;;;;;;;2.10;1.00;;;9.90;99.90;;;;;;10533285;28;20275;-62
2024/01/22 07:59:54;;;;;;;3.08;0.80;;;10.00;99.90;;;;;;10532107;28;20214;-61
2024/01/22 08:05:07;;;;;;;3.42;0.82;;;10.20;99.90;;;;;;10526147;28;20230;-61
2024/01/22 08:10:12;;;;;;;2.13;0.80;;;10.40;99.90;;;;;;10533485;28;20737;-62
2024/01/22 08:15:20;;;;;;;4.05;1.08;;;10.60;99.90;;;;;;10533050;28;20271;-62
2024/01/22 08:20:29;;;;;;;2.72;1.23;;;10.70;99.90;;;;;;10531653;28;20213;-62
2024/01/22 08:25:44;;;;;;;0.77;0.55;;;10.80;99.90;;;;;;10532342;28;20226;-62
2024/01/22 08:30:49;;;;;;;2.67;0.73;;;10.90;99.90;;;;;;10532234;28;20930;-63
2024/01/22 08:35:52;;;;;;;1.88;0.68;;;10.90;99.90;;;;;;10531362;28;20275;-62
2024/01/22 08:40:56;;;;;;;2.13;0.80;;;11.00;99.90;;;;;;10532497;28;20210;-62
2024/01/22 08:46:01;;;;;;;2.13;0.82;;;11.10;99.90;;;;;;10524804;28;20230;-61
2024/01/22 08:51:05;;;;;;;1.10;0.63;;;11.20;99.90;;;;;;10530885;28;20195;-62
2024/01/22 08:56:09;;;;;;;2.35;0.77;;;11.20;99.90;;;;;;10530614;28;20704;-61
2024/01/22 09:01:14;;;;;;;0.90;0.60;;;11.20;99.90;;;;;;10530725;28;20226;-63
2024/01/22 09:06:20;;;;;;;1.70;0.80;;;11.20;99.90;;;;;;10522179;28;20287;-62
2024/01/22 09:11:29;;;;;;;2.00;0.98;;;11.30;99.90;;;;;;10521388;28;20228;-62
2024/01/22 09:16:34;;;;;;;2.20;0.90;;;11.20;99.90;;;;;;10521273;28;20190;-62
2024/01/22 09:21:47;;;;;;;3.05;1.02;;;11.20;99.90;;;;;;10516832;28;20230;-62
2024/01/22 09:26:51;;;;;;;2.08;0.90;;;11.20;99.90;;;;;;10516255;28;20621;-61
2024/01/22 09:32:01;;;;;;;1.95;0.68;;;11.20;99.90;;;;;;10519456;28;20233;-65
2024/01/22 09:37:05;;;;;;;1.65;0.70;;;11.20;99.90;;;;;;10516869;28;20283;-64
2024/01/22 09:42:14;;;;;;;2.85;0.77;;;11.30;99.90;;;;;;10520585;28;20261;-64
2024/01/22 09:47:28;;;;;;;4.30;1.10;;;11.30;99.90;;;;;;10517906;28;20764;-64
2024/01/22 09:52:34;;;;;;;2.60;0.85;;;11.30;99.90;;;;;;10521313;28;20251;-65
2024/01/22 09:57:39;;;;;;;3.90;1.10;;;11.40;99.90;;;;;;10519961;28;20581;-64
2024/01/22 10:02:45;;;;;;;1.75;0.75;;;11.50;99.90;;;;;;10514967;28;20225;-63
2024/01/22 10:07:49;;;;;;;5.53;1.42;;;11.50;99.90;;;;;;10524652;28;20246;-64
2024/01/22 10:13:04;;;;;;;5.97;1.00;;;11.60;99.90;;;;;;10524878;28;20581;-63
2024/01/22 10:18:13;;;;;;;5.15;1.50;;;11.70;99.90;;;;;;10520204;28;20259;-65
2024/01/22 10:23:17;;;;;;;3.28;1.02;;;11.80;99.90;;;;;;10509342;28;20222;-65
2024/01/22 10:28:27;;;;;;;4.43;1.35;;;11.90;99.90;;;;;;10523850;28;20247;-65
2024/01/22 10:33:35;;;;;;;5.13;1.20;;;11.90;99.90;;;;;;10517396;28;20358;-67
2024/01/22 10:39:02;;;;;;;4.60;1.67;;;11.90;99.90;;;;;;10521308;28;20226;-65
2024/01/22 10:44:06;;;;;;;7.03;2.13;;;11.90;99.90;;;;;;10527827;28;20222;-65
2024/01/22 10:49:17;;;;;;;4.25;1.10;;;12.00;99.90;;;;;;10526510;28;20210;-63
2024/01/22 10:54:24;;;;;;;5.15;1.45;;;12.00;99.90;;;;;;10530625;28;20286;-65
2024/01/22 10:59:37;;;;;;;4.18;1.25;;;12.10;99.90;;;;;;10530881;28;20276;-65
2024/01/22 11:04:47;;;;;;;6.10;1.60;;;12.10;99.90;;;;;;10524798;28;20222;-65
2024/01/22 11:09:59;;;;;;;6.57;1.60;;;12.10;99.90;;;;;;10524825;28;20194;-64
2024/01/22 11:15:07;;;;;;;5.18;1.40;;;12.10;99.90;;;;;;10527094;28;20226;-64
2024/01/22 11:20:19;;;;;;;11.32;5.03;;;12.10;99.90;;;;;;10528430;28;20271;-65
2024/01/22 11:25:26;;;;;;;6.05;1.13;;;12.10;99.90;;;;;;10526895;28;20265;-66
2024/01/22 11:30:34;;;;;;;4.60;1.20;;;12.20;99.90;;;;;;10524998;28;20198;-66
2024/01/22 11:35:44;;;;;;;5.03;1.52;;;12.20;99.90;;;;;;10525696;28;20264;-65
2024/01/22 11:40:50;;;;;;;5.97;1.23;;;12.30;99.90;;;;;;10525776;28;20295;-64
2024/01/22 11:46:15;;;;;;;3.95;1.20;;;12.20;99.90;;;;;;10530039;28;20218;-67
2024/01/22 11:51:25;;;;;;;2.95;1.10;;;12.20;99.90;;;;;;10519266;28;20217;-64
2024/01/22 11:56:29;;;;;;;3.38;1.30;;;12.10;99.90;;;;;;10524400;28;20255;-67
2024/01/22 12:01:33;;;;;;;3.50;1.17;;;12.00;99.90;;;;;;10518473;28;20254;-63
2024/01/22 12:06:49;;;;;;;6.47;1.90;;;11.90;99.90;;;;;;10522693;28;20232;-65
2024/01/22 12:11:54;;;;;;;7.80;2.20;;;11.70;99.90;;;;;;10521526;28;20291;-65
2024/01/22 12:17:01;;;;;;;15.50;3.42;;;11.30;99.90;;;;;;10524658;28;20573;-66
2024/01/22 12:22:09;;;;;;;18.58;5.35;;;10.80;99.90;;;;;;10518062;28;20645;-66
2024/01/22 12:27:20;;;;;;;14.02;2.65;;;10.50;99.90;;;;;;10524975;28;20255;-67
2024/01/22 12:32:27;;;;;;;15.25;2.88;;;10.30;99.90;;;;;;10525716;28;20221;-64
2024/01/22 12:37:34;;;;;;;11.40;3.42;;;10.10;99.90;;;;;;10516363;28;20233;-66
2024/01/22 12:42:44;;;;;;;14.85;3.28;;;10.00;99.90;;;;;;10519519;28;20287;-64
2024/01/22 12:47:49;;;;;;;18.80;3.63;;;10.00;99.90;;;;;;10515762;28;20202;-68
2024/01/22 12:52:54;;;;;;;15.73;2.95;;;10.00;99.90;;;;;;10517940;28;20298;-65
2024/01/22 12:57:58;;;;;;;17.13;4.30;;;10.00;99.90;;;;;;10522802;28;20203;-68
2024/01/22 13:03:02;;;;;;;15.13;3.58;;;9.90;99.90;;;;;;10523200;28;20684;-66
2024/01/22 13:08:09;;;;;;;11.13;2.65;;;9.90;99.90;;;;;;10522272;28;20252;-66
2024/01/22 13:13:13;;;;;;;8.98;2.25;;;10.00;99.90;;;;;;10522712;28;20754;-67
2024/01/22 13:18:17;;;;;;;10.50;2.45;;;9.90;99.90;;;;;;10520194;28;20261;-66
2024/01/22 13:23:22;;;;;;;16.48;3.63;;;9.80;99.90;;;;;;10520673;28;20624;-64
2024/01/22 13:28:29;;;;;;;21.73;5.03;;;9.80;99.90;;;;;;10518785;28;20293;-65
2024/01/22 13:33:32;;;;;;;19.38;4.90;;;9.90;99.90;;;;;;10521264;28;20230;-64
2024/01/22 13:38:41;;;;;;;21.45;4.88;;;10.00;99.90;;;;;;10517454;28;20738;-62
2024/01/22 13:43:46;;;;;;;8.25;3.00;;;10.10;99.90;;;;;;10518653;28;20271;-66
2024/01/22 13:48:50;;;;;;;9.02;2.92;;;10.20;99.90;;;;;;10516998;28;20260;-65
2024/01/22 13:53:55;;;;;;;9.55;2.70;;;10.20;98.70;;;;;;10522818;28;20273;-65
2024/01/22 13:59:00;;;;;;;14.38;3.45;;;10.30;98.40;;;;;;10516769;28;20244;-65
2024/01/22 14:04:03;;;;;;;13.65;3.75;;;10.40;98.40;;;;;;10523294;28;20268;-65
2024/01/22 14:09:09;;;;;;;14.35;4.35;;;10.40;98.80;;;;;;10520366;28;20557;-64
2024/01/22 14:14:13;;;;;;;15.88;3.85;;;10.40;99.30;;;;;;10515921;28;20625;-66
2024/01/22 14:19:25;;;;;;;19.00;4.30;;;10.40;99.30;;;;;;10525861;28;20622;-65
2024/01/22 14:24:31;;;;;;;16.00;4.38;;;10.50;99.30;;;;;;10526138;28;20255;-65
2024/01/22 14:29:34;;;;;;;17.15;5.22;;;10.50;99.40;;;;;;10525753;28;20206;-64
2024/01/22 14:34:40;;;;;;;12.15;4.07;;;10.40;99.40;;;;;;10529238;28;20226;-65
2024/01/22 14:39:48;;;;;;;21.70;5.10;;;10.50;99.80;;;;;;10527611;28;20749;-65
2024/01/22 14:44:54;;;;;;;15.95;4.68;;;10.50;99.90;;;;;;10526334;28;20218;-65
2024/01/22 14:49:57;;;;;;;18.42;4.53;;;10.40;99.80;;;;;;10527297;28;20194;-65
2024/01/22 14:55:03;;;;;;;16.60;4.03;;;10.40;99.30;;;;;;10522951;28;20227;-66
2024/01/22 15:00:08;;;;;;;16.38;4.32;;;10.40;98.30;;;;;;10521037;28;20241;-65
2024/01/22 15:05:20;;;;;;;15.98;4.60;;;10.40;97.30;;;;;;10526630;28;20254;-65
2024/01/22 15:10:32;;;;;;;18.00;4.43;;;10.50;96.90;;;;;;10525313;28;20666;-64
2024/01/22 15:15:36;;;;;;;19.50;4.30;;;10.50;96.10;;;;;;10527677;28;20275;-66
2024/01/22 15:20:42;;;;;;;16.77;4.28;;;10.50;95.60;;;;;;10524487;28;20549;-65
2024/01/22 15:25:53;;;;;;;18.92;4.05;;;10.50;95.40;;;;;;10524508;28;20226;-65
2024/01/22 15:30:56;;;;;;;24.70;4.45;;;10.50;95.20;;;;;;10522412;28;20574;-65
2024/01/22 15:36:01;;;;;;;17.88;4.18;;;10.40;95.10;;;;;;10523408;28;20259;-61
2024/01/22 15:41:10;;;;;;;15.02;3.17;;;10.40;95.10;;;;;;10536088;28;20210;-61
2024/01/22 15:46:14;;;;;;;15.25;4.03;;;10.40;95.50;;;;;;10527635;28;20700;-60
2024/01/22 15:51:18;;;;;;;17.05;4.20;;;10.40;95.50;;;;;;10526043;28;20187;-60
2024/01/22 15:56:23;;;;;;;17.90;3.80;;;10.40;96.30;;;;;;10544047;28;20254;-61
2024/01/22 16:01:27;;;;;;;12.70;3.70;;;10.40;96.20;;;;;;10533038;28;20259;-61
2024/01/22 16:06:31;;;;;;;16.33;3.67;;;10.40;95.80;;;;;;10527763;28;20198;-61
2024/01/22 16:11:37;;;;;;;14.13;3.05;;;10.40;95.00;;;;;;10529413;28;20222;-60
2024/01/22 16:16:42;;;;;;;13.73;3.70;;;10.30;94.20;;;;;;10530772;28;20195;-61
2024/01/22 16:21:51;;;;;;;14.70;3.35;;;10.40;94.20;;;;;;10528490;28;20685;-60
2024/01/22 16:26:57;;;;;;;16.27;3.55;;;10.40;94.10;;;;;;10533050;28;20198;-61
2024/01/22 16:32:00;;;;;;;19.55;4.07;;;10.30;93.90;;;;;;10520618;28;20222;-61
2024/01/22 16:37:04;;;;;;;19.10;4.35;;;10.30;94.20;;;;;;10523634;28;20206;-61
2024/01/22 16:42:11;;;;;;;17.98;4.20;;;10.30;94.10;;;;;;10526903;28;20223;-61
2024/01/22 16:47:15;;;;;;;17.17;3.70;;;10.20;94.10;;;;;;10528158;28;20444;-59
2024/01/22 16:52:19;;;;;;;12.82;3.17;;;10.20;94.10;;;;;;10505450;28;20240;-61
2024/01/22 16:57:24;;;;;;;22.33;4.25;;;10.20;94.70;;;;;;10503611;28;20248;-60
2024/01/22 17:02:28;;;;;;;16.05;4.43;;;10.20;94.50;;;;;;10529023;28;20226;-60
2024/01/22 17:07:32;;;;;;;20.30;4.45;;;10.20;94.60;;;;;;10533193;28;20255;-61
2024/01/22 17:12:37;;;;;;;17.73;5.03;;;10.10;94.50;;;;;;10533524;28;20218;-60
2024/01/22 17:17:43;;;;;;;18.20;4.07;;;10.10;94.60;;;;;;10532659;28;20198;-61
2024/01/22 17:22:49;;;;;;;25.38;5.63;;;10.10;94.50;;;;;;10531987;28;20272;-61
2024/01/22 17:27:56;;;;;;;16.30;4.10;;;10.10;94.70;;;;;;10533209;28;20269;-60
2024/01/22 17:33:00;;;;;;;20.33;5.65;;;10.10;95.00;;;;;;10507120;28;20279;-60
2024/01/22 17:38:09;;;;;;;21.70;4.63;;;10.10;94.70;;;;;;10509819;28;20244;-63
2024/01/22 17:43:17;;;;;;;14.85;4.10;;;10.10;94.70;;;;;;10512917;28;20257;-65
2024/01/22 17:48:20;;;;;;;15.77;4.22;;;10.00;94.90;;;;;;10492625;28;20670;-60
2024/01/22 17:53:24;;;;;;;18.98;4.13;;;10.00;94.60;;;;;;10521516;28;20214;-61
2024/01/22 17:58:29;;;;;;;16.52;4.00;;;10.00;94.50;;;;;;10531939;28;20194;-61
2024/01/22 18:03:33;;;;;;;24.38;4.68;;;9.90;94.90;;;;;;10531373;28;20222;-60
2024/01/22 18:08:37;;;;;;;16.63;3.77;;;9.90;94.60;;;;;;10530898;28;20206;-62
2024/01/22 18:13:42;;;;;;;16.92;4.03;;;9.90;94.20;;;;;;10531590;28;20210;-62
2024/01/22 18:18:46;;;;;;;17.80;4.30;;;9.90;94.20;;;;;;10531653;28;20813;-61
2024/01/22 18:23:50;;;;;;;18.83;4.07;;;9.90;94.00;;;;;;10531899;28;20263;-61
2024/01/22 18:28:55;;;;;;;14.63;3.33;;;10.00;93.90;;;;;;10527736;28;20220;-62
2024/01/22 18:33:59;;;;;;;16.02;3.17;;;9.90;94.20;;;;;;10510302;28;20401;-62
2024/01/22 18:39:03;;;;;;;17.67;3.67;;;9.90;93.30;;;;;;10512956;28;20288;-62
2024/01/22 18:44:11;;;;;;;17.67;4.05;;;10.00;93.20;;;;;;10514121;28;20303;-65
2024/01/22 18:49:15;;;;;;;20.27;3.90;;;9.90;93.90;;;;;;10516182;28;20229;-66
2024/01/22 18:54:21;;;;;;;16.63;3.78;;;10.00;93.60;;;;;;10519270;28;20307;-62
2024/01/22 18:59:27;;;;;;;18.20;3.95;;;10.00;93.50;;;;;;10525791;28;20238;-62
2024/01/22 19:04:30;;;;;;;20.27;4.33;;;9.90;93.90;;;;;;10526959;28;20306;-61
2024/01/22 19:09:34;;;;;;;12.82;3.25;;;9.90;94.20;;;;;;10529474;28;20315;-63
2024/01/22 19:14:39;;;;;;;16.02;4.00;;;9.90;94.60;;;;;;10527235;28;20242;-60
2024/01/22 19:19:43;;;;;;;16.33;3.40;;;9.90;94.00;;;;;;10537122;28;20236;-61
2024/01/22 19:24:47;;;;;;;14.97;3.43;;;9.90;94.00;;;;;;10536619;28;20218;-60
2024/01/22 19:29:52;;;;;;;14.82;4.00;;;9.90;94.00;;;;;;10536548;28;20252;-60
2024/01/22 19:34:56;;;;;;;13.53;3.90;;;9.80;93.90;;;;;;10536243;28;20908;-60
2024/01/22 19:40:00;;;;;;;15.30;4.75;;;9.80;94.00;;;;;;10536662;28;20202;-60
2024/01/22 19:45:06;;;;;;;16.48;4.30;;;9.80;94.20;;;;;;10536445;28;20214;-60
2024/01/22 19:50:10;;;;;;;14.15;3.78;;;9.80;94.40;;;;;;10536620;28;20187;-59
2024/01/22 19:55:14;;;;;;;15.48;3.17;;;9.80;94.40;;;;;;10535752;28;20214;-59
2024/01/22 20:00:19;;;;;;;19.63;4.13;;;9.80;94.40;;;;;;10535740;28;20247;-60
2024/01/22 20:05:23;;;;;;;17.77;3.97;;;9.80;94.10;;;;;;10535111;28;20709;-57
2024/01/22 20:10:27;;;;;;;16.10;3.72;;;9.80;94.30;;;;;;10535024;28;20247;-62
2024/01/22 20:15:32;;;;;;;18.83;4.47;;;9.80;94.10;;;;;;10534244;28;20214;-63
2024/01/22 20:20:35;;;;;;;20.90;3.88;;;9.80;94.20;;;;;;10535385;28;20198;-62
2024/01/22 20:25:39;;;;;;;19.25;3.95;;;9.80;94.40;;;;;;10534351;28;20210;-62
2024/01/22 20:30:44;;;;;;;22.27;5.00;;;9.80;93.80;;;;;;10535137;28;20232;-61
2024/01/22 20:35:48;;;;;;;14.35;3.97;;;9.80;93.60;;;;;;10533838;28;20286;-62
2024/01/22 20:40:55;;;;;;;24.47;4.57;;;9.80;93.60;;;;;;10534242;28;20259;-62
2024/01/22 20:46:00;;;;;;;13.73;4.20;;;9.80;94.00;;;;;;10533465;28;20240;-62
2024/01/22 20:51:04;;;;;;;24.05;4.43;;;9.80;94.20;;;;;;10533876;28;20227;-61
2024/01/22 20:56:08;;;;;;;16.83;3.90;;;9.80;94.10;;;;;;10533546;28;20770;-62
2024/01/22 21:01:21;;;;;;;17.57;3.40;;;9.80;94.10;;;;;;10533577;28;20198;-63
2024/01/22 21:06:34;;;;;;;18.77;4.15;;;9.80;94.10;;;;;;10533439;28;20210;-62
2024/01/22 21:11:38;;;;;;;16.30;3.60;;;9.70;93.80;;;;;;10532819;28;20214;-61
2024/01/22 21:16:43;;;;;;;18.52;3.58;;;9.80;94.10;;;;;;10533114;28;20190;-62
2024/01/22 21:21:51;;;;;;;13.95;3.50;;;9.70;93.90;;;;;;10533110;28;20755;-62
2024/01/22 21:26:56;;;;;;;15.90;3.63;;;9.70;94.10;;;;;;10532454;28;20291;-61
2024/01/22 21:32:01;;;;;;;15.30;3.53;;;9.70;93.80;;;;;;10513098;28;20219;-59
2024/01/22 21:37:05;;;;;;;17.48;3.60;;;9.70;93.80;;;;;;10527487;28;20198;-57
2024/01/22 21:42:09;;;;;;;14.95;3.22;;;9.70;93.60;;;;;;10515907;28;20259;-64
2024/01/22 21:47:14;;;;;;;15.85;4.03;;;9.70;93.40;;;;;;10516859;28;20250;-63
2024/01/22 21:52:18;;;;;;;13.23;3.20;;;9.70;93.80;;;;;;10514975;28;20696;-64
2024/01/22 21:57:21;;;;;;;15.63;3.57;;;9.60;93.40;;;;;;10519796;28;20194;-66
2024/01/22 22:02:27;;;;;;;16.97;4.17;;;9.60;93.80;;;;;;10522803;28;20271;-65
2024/01/22 22:07:32;;;;;;;18.40;4.03;;;9.60;93.50;;;;;;10522814;28;20264;-66
2024/01/22 22:12:37;;;;;;;15.30;3.40;;;9.60;93.60;;;;;;10522674;28;20720;-65
2024/01/22 22:17:43;;;;;;;18.15;3.30;;;9.60;94.20;;;;;;10513262;28;20222;-65
2024/01/22 22:22:46;;;;;;;16.90;4.03;;;9.60;93.80;;;;;;10519833;28;20279;-65
2024/01/22 22:27:50;;;;;;;17.80;4.32;;;9.60;93.70;;;;;;10522169;28;20234;-66
2024/01/22 22:32:59;;;;;;;16.38;3.65;;;9.60;94.30;;;;;;10522177;28;20253;-65
2024/01/22 22:38:03;;;;;;;15.30;3.93;;;9.60;94.10;;;;;;10524866;28;20248;-66
2024/01/22 22:43:06;;;;;;;14.30;3.63;;;9.60;93.90;;;;;;10529880;28;20240;-66
2024/01/22 22:48:14;;;;;;;20.73;4.20;;;9.60;93.80;;;;;;10530786;28;20198;-61
2024/01/22 22:53:21;;;;;;;17.70;4.00;;;9.60;93.40;;;;;;10525560;28;20218;-62
2024/01/22 22:58:29;;;;;;;19.90;3.90;;;9.60;93.60;;;;;;10528952;28;20252;-64
2024/01/22 23:03:34;;;;;;;13.67;3.57;;;9.60;93.40;;;;;;10527249;28;20234;-65
2024/01/22 23:08:41;;;;;;;22.43;3.97;;;9.60;93.30;;;;;;10523845;28;20291;-64
2024/01/22 23:13:45;;;;;;;17.63;3.57;;;9.60;93.20;;;;;;10527420;28;20299;-64
2024/01/22 23:18:50;;;;;;;16.13;3.20;;;9.60;93.00;;;;;;10526580;28;20890;-65
2024/01/22 23:23:54;;;;;;;16.90;3.70;;;9.60;93.10;;;;;;10524991;28;20296;-65
2024/01/22 23:29:01;;;;;;;11.73;3.00;;;9.60;92.90;;;;;;10527656;28;20202;-64
2024/01/22 23:34:08;;;;;;;17.67;3.60;;;9.60;92.70;;;;;;10527134;28;20261;-64
2024/01/22 23:39:12;;;;;;;16.90;3.43;;;9.60;92.80;;;;;;10526234;28;20275;-65
2024/01/22 23:44:16;;;;;;;15.87;3.53;;;9.60;93.00;;;;;;10527458;28;20276;-66
2024/01/22 23:49:21;;;;;;;15.23;3.70;;;9.60;92.80;;;;;;10523375;28;20194;-64
2024/01/22 23:54:25;;;;;;;14.60;3.40;;;9.60;92.70;;;;;;10521696;28;20249;-65
2024/01/22 23:59:28;;;;;;;21.30;3.73;;;9.60;92.80;;;;;;10526543;28;20194;-63
